»·PEaware :: N825TJ KRNO-KLAX

N825TJ :: KRNO-KLAX

FLIGHT INFORMATION

Flight Status: Arrived
Operator: Privately registered:
United States
More flights under this callsign
Pilot: Tyler J. (19619)
Aircraft: CESSNA 525A CITATION CJ2
(C25A)
More flights by this aircraft type
Origin: KRNO Reno/Tahoe Intl
United States
Destination: KLAX Los Angeles Intl
United States
More flights between these airports :: More routes between these airports
Route: ZEFFR6 DARBI FRA J7 REBRG IRNMN2
File this flight plan on PilotEdge
Remarks:
Altitude:
(Current/Filed)
37,000ft
Speed:
(Current/Filed)
430kts
Departed: 23-Aug-18 11:16 AM
Arrived: 23-Aug-18 12:32 PM
Distance/Time
Traveled:
340nm/1:16
Distance/Time
To Go:
Arrived

Flight Plot

Page will automatically refresh every two minutes.

Flight plan parsing failed; only flown route is shown


Map Options




Map Legend


Flown Route
Filed Route
Departure Airport
Arrival Airport
Navaid (VOR, NDB)
Fix

Horizontal Profiles

Position Reports

Time Latitude Longitude Heading Altitude Ground
Speed
23-Aug-18 10:29 39.502045 -119.764344 25 4419ft 0kts
23-Aug-18 10:30 39.502045 -119.764344 25 4419ft 0kts
23-Aug-18 10:31 39.502045 -119.764344 25 4419ft 0kts
23-Aug-18 10:32 39.502045 -119.764344 25 4419ft 0kts
23-Aug-18 10:33 39.502045 -119.764344 25 4419ft 0kts
23-Aug-18 10:34 39.502045 -119.764344 25 4419ft 0kts
23-Aug-18 10:35 39.502045 -119.764344 25 4419ft 0kts
23-Aug-18 10:36 39.502045 -119.764344 25 4419ft 0kts
23-Aug-18 10:37 39.502045 -119.764344 25 4419ft 0kts
23-Aug-18 10:38 39.502045 -119.764344 25 4419ft 0kts
23-Aug-18 10:39 39.502045 -119.764344 25 4419ft 0kts
23-Aug-18 10:40 39.502045 -119.764344 25 4419ft 0kts
23-Aug-18 10:41 39.502045 -119.764344 25 4419ft 0kts
23-Aug-18 10:42 39.502045 -119.764344 25 4419ft 0kts
23-Aug-18 10:43 39.502045 -119.764344 25 4419ft 0kts
23-Aug-18 10:44 39.502045 -119.764344 25 4419ft 0kts
23-Aug-18 10:45 39.502045 -119.764344 25 4419ft 0kts
23-Aug-18 10:46 39.502045 -119.764344 25 4419ft 0kts
23-Aug-18 10:47 39.502045 -119.764344 25 4419ft 0kts
23-Aug-18 10:48 39.502045 -119.764344 25 4419ft 0kts
23-Aug-18 10:49 39.502045 -119.764344 25 4419ft 0kts
23-Aug-18 10:50 39.502045 -119.764344 25 4419ft 0kts
23-Aug-18 10:51 39.502045 -119.764344 25 4419ft 0kts
23-Aug-18 10:52 39.502045 -119.764344 25 4419ft 0kts
23-Aug-18 10:53 39.502045 -119.764344 25 4419ft 0kts
23-Aug-18 10:54 39.502045 -119.764344 25 4419ft 0kts
23-Aug-18 10:55 39.502045 -119.764344 25 4419ft 0kts
23-Aug-18 10:56 39.502045 -119.764344 25 4419ft 0kts
23-Aug-18 10:57 39.502045 -119.764344 25 4419ft 0kts
23-Aug-18 10:58 39.502045 -119.764344 25 4419ft 0kts
23-Aug-18 10:59 39.502045 -119.764344 25 4419ft 0kts
23-Aug-18 11:00 39.502045 -119.764344 25 4419ft 0kts
23-Aug-18 11:01 39.502045 -119.764344 25 4419ft 0kts
23-Aug-18 11:02 39.502045 -119.764344 25 4419ft 0kts
23-Aug-18 11:03 39.502045 -119.764344 25 4419ft 0kts
23-Aug-18 11:04 39.502045 -119.764344 25 4419ft 0kts
23-Aug-18 11:05 39.502123 -119.764389 309 4419ft 0kts
23-Aug-18 11:10 39.501692 -119.764603 345 4419ft 0kts
23-Aug-18 11:11 39.502252 -119.765176 199 4419ft 5kts
23-Aug-18 11:12 39.503916 -119.765741 1 4419ft 9kts
23-Aug-18 11:13 39.507081 -119.765702 1 4419ft 15kts
23-Aug-18 11:14 39.510109 -119.765686 5 4419ft 9kts
23-Aug-18 11:15 39.512622 -119.765174 0 4419ft 7kts
23-Aug-18 11:16 39.513525 -119.766614 234 4419ft 9kts
23-Aug-18 11:17 39.494515 -119.766829 178 4640ft 173kts
23-Aug-18 11:18 39.435057 -119.767290 178 7560ft 254kts
23-Aug-18 11:19 39.357738 -119.769262 179 11377ft 289kts
23-Aug-18 11:20 39.275159 -119.767584 178 15976ft 302kts
23-Aug-18 11:21 39.189483 -119.764682 178 19488ft 315kts
23-Aug-18 11:22 39.099491 -119.761401 179 22348ft 334kts
23-Aug-18 11:23 39.002509 -119.757821 179 24772ft 360kts
23-Aug-18 11:24 38.899339 -119.753972 179 27179ft 378kts
23-Aug-18 11:25 38.793788 -119.749996 179 29575ft 379kts
23-Aug-18 11:26 38.689262 -119.746050 180 31969ft 371kts
23-Aug-18 11:27 38.586733 -119.742233 180 33696ft 376kts
23-Aug-18 11:28 38.479991 -119.738309 180 34767ft 382kts
23-Aug-18 11:29 38.373814 -119.734356 180 35639ft 388kts
23-Aug-18 11:30 38.265375 -119.718745 170 36175ft 395kts
23-Aug-18 11:31 38.158634 -119.686528 168 36765ft 396kts
23-Aug-18 11:32 38.051006 -119.652162 169 37109ft 398kts
23-Aug-18 11:33 37.943167 -119.617463 169 37106ft 406kts
23-Aug-18 11:34 37.836308 -119.583419 169 37047ft 406kts
23-Aug-18 11:35 37.726701 -119.548688 169 37037ft 405kts
23-Aug-18 11:36 37.617588 -119.514201 170 37035ft 404kts
23-Aug-18 11:37 37.508617 -119.479848 170 37030ft 403kts
23-Aug-18 11:38 37.399958 -119.445688 170 37011ft 402kts
23-Aug-18 11:39 37.291436 -119.411666 170 36997ft 401kts
23-Aug-18 11:40 37.183682 -119.377979 171 36974ft 399kts
23-Aug-18 11:41 37.075883 -119.344376 171 36960ft 398kts
23-Aug-18 11:42 36.968455 -119.310980 171 36930ft 396kts
23-Aug-18 11:43 36.861856 -119.277942 172 36901ft 394kts
23-Aug-18 11:44 36.755851 -119.245192 172 36899ft 392kts
23-Aug-18 11:45 36.649984 -119.212582 172 36890ft 391kts
23-Aug-18 11:46 36.544437 -119.180163 172 36890ft 390kts
23-Aug-18 11:47 36.438716 -119.147781 172 36889ft 390kts
23-Aug-18 11:48 36.334014 -119.111247 167 36836ft 394kts
23-Aug-18 11:49 36.230466 -119.068959 174 36888ft 387kts
23-Aug-18 11:50 36.133062 -119.093641 230 36890ft 360kts
23-Aug-18 11:51 36.087006 -119.203754 246 36891ft 362kts
23-Aug-18 11:52 36.054894 -119.321661 250 36890ft 363kts
23-Aug-18 11:53 36.024488 -119.440612 250 36893ft 363kts
23-Aug-18 11:54 35.993974 -119.559717 250 36892ft 363kts
23-Aug-18 11:55 35.963472 -119.678715 250 36893ft 363kts
23-Aug-18 11:56 35.901176 -119.764150 190 36912ft 364kts
23-Aug-18 11:57 35.798927 -119.745774 176 36525ft 374kts
23-Aug-18 11:58 35.697337 -119.724644 186 36677ft 359kts
23-Aug-18 11:59 35.601841 -119.744413 196 36811ft 336kts
23-Aug-18 12:00 35.511334 -119.769192 196 36115ft 331kts
23-Aug-18 12:01 35.425072 -119.791059 195 35445ft 330kts
23-Aug-18 12:02 35.334794 -119.813069 195 34746ft 330kts
23-Aug-18 12:03 35.244405 -119.779473 154 33791ft 363kts
23-Aug-18 12:04 35.154866 -119.701019 148 32665ft 419kts
23-Aug-18 12:05 35.060138 -119.611976 147 31402ft 436kts
23-Aug-18 12:06 34.963417 -119.521199 146 30107ft 442kts
23-Aug-18 12:07 34.866513 -119.432442 147 28884ft 422kts
23-Aug-18 12:08 34.772888 -119.348854 147 27565ft 417kts
23-Aug-18 12:09 34.676441 -119.264242 146 24844ft 432kts
23-Aug-18 12:10 34.599122 -119.196770 148 23853ft 278kts
23-Aug-18 12:11 34.535332 -119.141507 146 22473ft 303kts
23-Aug-18 12:12 34.454138 -119.070107 145 20452ft 355kts
23-Aug-18 12:13 34.380461 -119.005697 146 18188ft 309kts
23-Aug-18 12:14 34.321592 -118.953562 145 17398ft 232kts
23-Aug-18 12:15 34.266777 -118.904243 145 16596ft 298kts
23-Aug-18 12:16 34.199937 -118.843004 144 14426ft 306kts
23-Aug-18 12:17 34.135331 -118.777838 140 12574ft 302kts
23-Aug-18 12:18 34.074645 -118.712526 139 10797ft 276kts
23-Aug-18 12:19 34.031271 -118.642706 109 9826ft 260kts
23-Aug-18 12:20 34.019061 -118.556651 96 8746ft 259kts
23-Aug-18 12:21 34.012619 -118.470188 89 7735ft 258kts
23-Aug-18 12:22 34.022460 -118.383804 79 6205ft 255kts
23-Aug-18 12:23 34.030890 -118.300418 84 4949ft 251kts
23-Aug-18 12:24 34.036418 -118.230595 84 3665ft 246kts
23-Aug-18 12:25 34.043644 -118.140811 84 3514ft 231kts
23-Aug-18 12:26 34.013697 -118.090587 199 3526ft 221kts
23-Aug-18 12:27 33.988130 -118.140873 252 3515ft 219kts
23-Aug-18 12:28 33.967191 -118.222405 251 3728ft 213kts
23-Aug-18 12:29 33.954895 -118.268896 252 2958ft 132kts
23-Aug-18 12:30 33.944711 -118.315797 264 1315ft 118kts
23-Aug-18 12:31 33.941105 -118.348971 262 802ft 120kts
23-Aug-18 12:32 33.936781 -118.391212 262 130ft 78kts
23-Aug-18 12:33 33.935747 -118.400662 260 130ft 22kts
23-Aug-18 12:34 33.934294 -118.400514 81 130ft 27kts
23-Aug-18 12:35 33.934053 -118.393960 247 130ft 8kts

Navigation Log

Ident Type
Flight plan parsing failed, navigation log unavailable